Terminal Aerodrome Forecast
Issued by NWS Bismarck, ND

Home | Current Version | Previous Version | Graphics & Text | Print | Product List | Glossary On
Versions: 1 2 3 4 5 6 7 8 9 10 11 12 13 14 15 16 17 18 19 20
609
FTUS43 KBIS 211131
TAFBIS
TAF
KBIS 211131Z 2112/2212 02006KT P6SM BKN150
     FM211700 06006KT P6SM BKN100
     FM212100 08010KT P6SM BKN110
     FM220400 11011G19KT P6SM BKN080=

USA.gov is the U.S. government's official web portal to all federal, state and local government web resources and services.